Billington, United Kingdom
Current Conditions -  °F | °C
As of 1:20 PM on Tuesday 21 Oct 2014 (Local Time) from EGNO Reporting Station
Rain Showers Rain Showers  
Wind Chill: 52°   Ceiling: 3300
Heat Index: 52°   Visibility: 6mi
Dew Point: 41°   Wind: 29mph
Humidity: 67%   Direction: 310°NW
Pressure: 29.62"   Gusts: 46mph
Location:  53.82°N, 2.42°W
Report Text: EGNO 211220Z 31025G40KT 270V340 9999 VCSH SCT025TCU BKN03311/05 Q1003 RERA
Loading
Personal Weather Stations






























Interactive Weather Map New forecast layout! Learn more

10-Day Weather Forecast

Advertisements
Track Severe Weather on mobile